Aeroporto :
LOGIN :

Iscrizione | Disclaimer

   EN    FR    IT 

 










Sommario :    VFR   VFR Marginale   IFR   IFR Intensivo   IFR Molto Intensivo
Visibilità : 
Base nubi : 
>= 8 km
>= 3000ft
5 / 8 km
1000 / 3000 ft
1500m / 5 km
500 / 1000 ft
800 / 1500m
200 / 500 ft
< 800m
< 200 ft
Simboli :   Temporali  Nebbia  Neve Forte  Precipitazioni Forti  Vento > 20 kt
SIGMETs :   Varie  Temporali  Ghiacco  Turbolenza  Onda orograficha  Ceneri Vulcaniche






- Altitudine del aeroporto : 685 ft
- Codice IATA : VKO


UUWW - Vnukovo International

ULTIMO METAR :
  • 090800Z 25007MPS CAVOK 12/M02 Q1015 R19/190055 NOSIG

METARs OBSOLETI :
  • 090730Z 24006MPS CAVOK 12/M02 Q1015 R19/190055 NOSIG
  • 090700Z 22005MPS CAVOK 11/M01 Q1016 R19/190055 NOSIG
  • 090630Z 25007MPS CAVOK 11/M00 Q1016 R24/190060 NOSIG
  • 090600Z 25005MPS CAVOK 09/00 Q1016 R24/190060 NOSIG
  • 090530Z 24004MPS CAVOK 07/01 Q1017 R24/190060 NOSIG

TAF TAF UUWW
Valido dal 09 a 06 ore il 10 a 06 ore UTC


090450Z 0906/1006 24006G13MPS 9999 SCT020 TX14/0912Z TN04/1003Z
BECMG 0917/0919 OVC011
TEMPO 0919/1006 3100 -SHRA BKN007 BKN012CB
BECMG 1003/1005 33005G10MPS



MetMap, La meteo Aeronautica in un colpo d'occhio ! - Copyright ORBIFLY Dicembre 2007 - Disclaimer

ORBIFLY MET'MAP TEAM :

Programmazione e sviluppo : Alexandra Zaïnal
Concezione : Baudouin d'Aumeries
Aiuto per la programmazione : Marc-Olivier Méhu
Supporto tecnico e logistico : Manuel Goepfert
Aiuto per la traduzione : Arnaldo La Scala

Contatto : metmap@orbifly.com




FONTI E CREDITI :

   NOAA